sensor_id;sensor_type;location;lat;lon;timestamp;pressure;altitude;pressure_sealevel;temperature;humidity
4836;BME280;66719;51.226;6.902;2023-05-24T00:01:53;101554.56;;;10.09;100.00
4836;BME280;66719;51.226;6.902;2023-05-24T00:04:22;101566.78;;;9.98;100.00
4836;BME280;66719;51.226;6.902;2023-05-24T00:06:51;101565.06;;;10.00;100.00
4836;BME280;66719;51.226;6.902;2023-05-24T00:09:20;101571.16;;;10.02;100.00
4836;BME280;66719;51.226;6.902;2023-05-24T00:11:47;101567.66;;;10.02;100.00
4836;BME280;66719;51.226;6.902;2023-05-24T00:14:14;101566.78;;;9.98;100.00
4836;BME280;66719;51.226;6.902;2023-05-24T00:16:41;101570.28;;;9.97;100.00
4836;BME280;66719;51.226;6.902;2023-05-24T00:19:07;101573.78;;;9.91;100.00
4836;BME280;66719;51.226;6.902;2023-05-24T00:21:36;101572.00;;;9.97;100.00
4836;BME280;66719;51.226;6.902;2023-05-24T00:24:03;101567.69;;;9.94;100.00
4836;BME280;66719;51.226;6.902;2023-05-24T00:26:30;101567.66;;;9.89;100.00
4836;BME280;66719;51.226;6.902;2023-05-24T00:28:56;101560.72;;;9.87;100.00
4836;BME280;66719;51.226;6.902;2023-05-24T00:31:23;101567.69;;;9.80;100.00
4836;BME280;66719;51.226;6.902;2023-05-24T00:33:49;101568.56;;;9.70;100.00
4836;BME280;66719;51.226;6.902;2023-05-24T00:36:16;101563.34;;;9.76;100.00
4836;BME280;66719;51.226;6.902;2023-05-24T00:38:42;101565.09;;;9.83;100.00
4836;BME280;66719;51.226;6.902;2023-05-24T00:41:09;101564.22;;;9.75;100.00
4836;BME280;66719;51.226;6.902;2023-05-24T00:43:36;101566.81;;;9.78;100.00
4836;BME280;66719;51.226;6.902;2023-05-24T00:46:31;101562.47;;;9.77;100.00
4836;BME280;66719;51.226;6.902;2023-05-24T00:48:59;101559.00;;;9.66;100.00
4836;BME280;66719;51.226;6.902;2023-05-24T00:51:26;101565.97;;;9.61;100.00
4836;BME280;66719;51.226;6.902;2023-05-24T00:53:54;101569.47;;;9.60;100.00
4836;BME280;66719;51.226;6.902;2023-05-24T00:56:21;101563.38;;;9.59;100.00
4836;BME280;66719;51.226;6.902;2023-05-24T00:58:50;101567.72;;;9.62;100.00
4836;BME280;66719;51.226;6.902;2023-05-24T01:01:19;101559.88;;;9.60;100.00
4836;BME280;66719;51.226;6.902;2023-05-24T01:03:46;101565.13;;;9.51;100.00
4836;BME280;66719;51.226;6.902;2023-05-24T01:06:13;101554.66;;;9.48;100.00
4836;BME280;66719;51.226;6.902;2023-05-24T01:13:57;101554.66;;;9.21;100.00
4836;BME280;66719;51.226;6.902;2023-05-24T01:22:17;101544.22;;;9.16;100.00
4836;BME280;66719;51.226;6.902;2023-05-24T01:24:58;101552.03;;;9.18;100.00
4836;BME280;66719;51.226;6.902;2023-05-24T01:27:31;101546.84;;;9.13;100.00
4836;BME280;66719;51.226;6.902;2023-05-24T01:29:59;101555.50;;;8.98;100.00
4836;BME280;66719;51.226;6.902;2023-05-24T01:32:27;101555.50;;;8.88;100.00
4836;BME280;66719;51.226;6.902;2023-05-24T01:34:54;101545.06;;;8.89;100.00
4836;BME280;66719;51.226;6.902;2023-05-24T01:37:21;101539.81;;;8.85;100.00
4836;BME280;66719;51.226;6.902;2023-05-24T01:39:48;101544.16;;;8.86;100.00
4836;BME280;66719;51.226;6.902;2023-05-24T01:42:26;101540.69;;;8.91;100.00
4836;BME280;66719;51.226;6.902;2023-05-24T01:50:42;101538.06;;;8.84;100.00
4836;BME280;66719;51.226;6.902;2023-05-24T01:53:12;101536.34;;;8.89;100.00
4836;BME280;66719;51.226;6.902;2023-05-24T01:55:39;101531.09;;;8.86;100.00
4836;BME280;66719;51.226;6.902;2023-05-24T01:58:08;101530.25;;;8.81;100.00
4836;BME280;66719;51.226;6.902;2023-05-24T02:00:37;101531.97;;;8.80;100.00
4836;BME280;66719;51.226;6.902;2023-05-24T02:03:05;101535.47;;;8.81;100.00
4836;BME280;66719;51.226;6.902;2023-05-24T02:05:32;101539.78;;;8.77;100.00
4836;BME280;66719;51.226;6.902;2023-05-24T02:07:59;101540.66;;;8.71;100.00
4836;BME280;66719;51.226;6.902;2023-05-24T02:10:25;101536.31;;;8.76;100.00
4836;BME280;66719;51.226;6.902;2023-05-24T02:12:52;101542.41;;;8.69;100.00
4836;BME280;66719;51.226;6.902;2023-05-24T02:15:18;101531.94;;;8.62;100.00
4836;BME280;66719;51.226;6.902;2023-05-24T02:17:45;101533.69;;;8.63;100.00
4836;BME280;66719;51.226;6.902;2023-05-24T02:20:13;101531.91;;;8.57;100.00
4836;BME280;66719;51.226;6.902;2023-05-24T02:22:39;101519.75;;;8.52;100.00
4836;BME280;66719;51.226;6.902;2023-05-24T02:25:07;101522.28;;;8.41;100.00
4836;BME280;66719;51.226;6.902;2023-05-24T02:27:33;101528.41;;;8.43;100.00
4836;BME280;66719;51.226;6.902;2023-05-24T02:30:00;101522.31;;;8.44;100.00
4836;BME280;66719;51.226;6.902;2023-05-24T02:32:26;101524.06;;;8.45;100.00
4836;BME280;66719;51.226;6.902;2023-05-24T02:34:53;101525.81;;;8.46;100.00
4836;BME280;66719;51.226;6.902;2023-05-24T02:37:19;101527.50;;;8.38;100.00
4836;BME280;66719;51.226;6.902;2023-05-24T02:39:46;101525.78;;;8.37;100.00
4836;BME280;66719;51.226;6.902;2023-05-24T02:42:12;101526.53;;;8.20;100.00
4836;BME280;66719;51.226;6.902;2023-05-24T02:44:39;101523.94;;;8.17;100.00
4836;BME280;66719;51.226;6.902;2023-05-24T02:47:08;101522.97;;;8.03;100.00
4836;BME280;66719;51.226;6.902;2023-05-24T02:49:34;101529.06;;;8.02;100.00
4836;BME280;66719;51.226;6.902;2023-05-24T02:52:01;101529.06;;;8.01;100.00
4836;BME280;66719;51.226;6.902;2023-05-24T02:54:27;101527.31;;;8.00;100.00
4836;BME280;66719;51.226;6.902;2023-05-24T02:56:54;101528.97;;;7.87;100.00
4836;BME280;66719;51.226;6.902;2023-05-24T02:59:22;101532.44;;;7.86;100.00
4836;BME280;66719;51.226;6.902;2023-05-24T03:01:49;101537.66;;;7.83;100.00
4836;BME280;66719;51.226;6.902;2023-05-24T03:04:16;101539.41;;;7.87;100.00
4836;BME280;66719;51.226;6.902;2023-05-24T03:06:43;101544.47;;;7.62;100.00
4836;BME280;66719;51.226;6.902;2023-05-24T03:09:10;101530.53;;;7.56;100.00
4836;BME280;66719;51.226;6.902;2023-05-24T03:11:36;101539.22;;;7.58;100.00
4836;BME280;66719;51.226;6.902;2023-05-24T03:14:03;101523.53;;;7.47;100.00
4836;BME280;66719;51.226;6.902;2023-05-24T03:16:31;101525.22;;;7.45;100.00
4836;BME280;66719;51.226;6.902;2023-05-24T03:18:58;101528.75;;;7.49;100.00
4836;BME280;66719;51.226;6.902;2023-05-24T03:21:25;101521.84;;;7.57;100.00
4836;BME280;66719;51.226;6.902;2023-05-24T03:23:52;101525.28;;;7.50;100.00
4836;BME280;66719;51.226;6.902;2023-05-24T03:26:19;101525.28;;;7.51;100.00
4836;BME280;66719;51.226;6.902;2023-05-24T03:28:46;101518.31;;;7.50;100.00
4836;BME280;66719;51.226;6.902;2023-05-24T03:31:12;101528.69;;;7.44;100.00
4836;BME280;66719;51.226;6.902;2023-05-24T03:33:39;101519.22;;;7.55;100.00
4836;BME280;66719;51.226;6.902;2023-05-24T03:36:06;101520.94;;;7.50;100.00
4836;BME280;66719;51.226;6.902;2023-05-24T03:38:32;101517.44;;;7.48;100.00
4836;BME280;66719;51.226;6.902;2023-05-24T03:40:59;101529.50;;;7.37;100.00
4836;BME280;66719;51.226;6.902;2023-05-24T03:43:25;101537.31;;;7.34;100.00
4836;BME280;66719;51.226;6.902;2023-05-24T03:45:52;101546.13;;;7.48;100.00
4836;BME280;66719;51.226;6.902;2023-05-24T03:48:18;101538.38;;;7.60;100.00
4836;BME280;66719;51.226;6.902;2023-05-24T03:50:48;101537.50;;;7.57;100.00
4836;BME280;66719;51.226;6.902;2023-05-24T03:53:14;101543.44;;;7.39;100.00
4836;BME280;66719;51.226;6.902;2023-05-24T03:55:41;101537.31;;;7.34;100.00
4836;BME280;66719;51.226;6.902;2023-05-24T03:58:07;101538.16;;;7.33;100.00
4836;BME280;66719;51.226;6.902;2023-05-24T04:00:34;101544.19;;;7.29;100.00
4836;BME280;66719;51.226;6.902;2023-05-24T04:03:00;101536.44;;;7.36;100.00
4836;BME280;66719;51.226;6.902;2023-05-24T04:05:27;101538.25;;;7.44;100.00
4836;BME280;66719;51.226;6.902;2023-05-24T04:07:55;101538.28;;;7.48;100.00
4836;BME280;66719;51.226;6.902;2023-05-24T04:10:22;101534.88;;;7.58;100.00
4836;BME280;66719;51.226;6.902;2023-05-24T04:12:48;101531.47;;;7.70;100.00
4836;BME280;66719;51.226;6.902;2023-05-24T04:15:15;101535.84;;;7.73;100.00
4836;BME280;66719;51.226;6.902;2023-05-24T04:17:42;101547.22;;;7.82;100.00
4836;BME280;66719;51.226;6.902;2023-05-24T04:20:11;101548.97;;;7.83;100.00
4836;BME280;66719;51.226;6.902;2023-05-24T04:22:38;101549.84;;;7.87;100.00
4836;BME280;66719;51.226;6.902;2023-05-24T04:25:05;101549.81;;;7.84;100.00
4836;BME280;66719;51.226;6.902;2023-05-24T04:27:32;101548.09;;;7.83;100.00
4836;BME280;66719;51.226;6.902;2023-05-24T04:29:58;101558.47;;;7.75;100.00
4836;BME280;66719;51.226;6.902;2023-05-24T04:32:25;101556.66;;;7.68;100.00
4836;BME280;66719;51.226;6.902;2023-05-24T04:34:55;101561.06;;;7.78;100.00
4836;BME280;66719;51.226;6.902;2023-05-24T04:37:22;101555.00;;;7.81;100.00
4836;BME280;66719;51.226;6.902;2023-05-24T04:39:49;101563.69;;;7.81;100.00
4836;BME280;66719;51.226;6.902;2023-05-24T04:42:16;101568.94;;;7.84;100.00
4836;BME280;66719;51.226;6.902;2023-05-24T04:44:43;101566.34;;;7.89;100.00
4836;BME280;66719;51.226;6.902;2023-05-24T04:47:10;101559.41;;;7.88;100.00
4836;BME280;66719;51.226;6.902;2023-05-24T04:49:38;101561.13;;;7.89;100.00
4836;BME280;66719;51.226;6.902;2023-05-24T04:52:05;101569.06;;;8.00;100.00
4836;BME280;66719;51.226;6.902;2023-05-24T04:54:32;101569.06;;;8.04;100.00
4836;BME280;66719;51.226;6.902;2023-05-24T04:56:59;101576.06;;;8.14;100.00
4836;BME280;66719;51.226;6.902;2023-05-24T04:59:25;101564.81;;;8.21;100.00
4836;BME280;66719;51.226;6.902;2023-05-24T05:01:52;101570.06;;;8.31;100.00
4836;BME280;66719;51.226;6.902;2023-05-24T05:04:19;101574.47;;;8.41;100.00
4836;BME280;66719;51.226;6.902;2023-05-24T05:06:45;101585.81;;;8.50;100.00
4836;BME280;66719;51.226;6.902;2023-05-24T05:09:13;101586.72;;;8.59;100.00
4836;BME280;66719;51.226;6.902;2023-05-24T05:11:41;101585.88;;;8.64;100.00
4836;BME280;66719;51.226;6.902;2023-05-24T05:14:08;101587.63;;;8.68;100.00
4836;BME280;66719;51.226;6.902;2023-05-24T05:16:34;101591.97;;;8.63;100.00
4836;BME280;66719;51.226;6.902;2023-05-24T05:19:02;101587.63;;;8.62;100.00
4836;BME280;66719;51.226;6.902;2023-05-24T05:21:30;101590.25;;;8.62;100.00
4836;BME280;66719;51.226;6.902;2023-05-24T05:24:00;101590.25;;;8.65;100.00
4836;BME280;66719;51.226;6.902;2023-05-24T05:26:27;101598.09;;;8.71;100.00
4836;BME280;66719;51.226;6.902;2023-05-24T05:28:54;101600.72;;;8.71;100.00
4836;BME280;66719;51.226;6.902;2023-05-24T05:31:21;101599.00;;;8.78;100.00
4836;BME280;66719;51.226;6.902;2023-05-24T05:33:48;101591.16;;;8.84;100.00
4836;BME280;66719;51.226;6.902;2023-05-24T05:36:20;101594.66;;;8.89;100.00
4836;BME280;66719;51.226;6.902;2023-05-24T05:38:47;101591.22;;;8.98;100.00
4836;BME280;66719;51.226;6.902;2023-05-24T05:41:14;101590.34;;;9.05;100.00
4836;BME280;66719;51.226;6.902;2023-05-24T05:43:40;101594.69;;;9.09;100.00
4836;BME280;66719;51.226;6.902;2023-05-24T05:46:06;101591.22;;;9.04;100.00
4836;BME280;66719;51.226;6.902;2023-05-24T05:48:33;101592.97;;;9.14;100.00
4836;BME280;66719;51.226;6.902;2023-05-24T05:51:00;101590.38;;;9.23;100.00
4836;BME280;66719;51.226;6.902;2023-05-24T05:53:26;101591.25;;;9.22;100.00
4836;BME280;66719;51.226;6.902;2023-05-24T05:55:53;101598.22;;;9.34;100.00
4836;BME280;66719;51.226;6.902;2023-05-24T05:58:19;101587.78;;;9.40;100.00
4836;BME280;66719;51.226;6.902;2023-05-24T06:00:46;101593.00;;;9.49;100.00
4836;BME280;66719;51.226;6.902;2023-05-24T06:03:12;101583.41;;;9.53;100.00
4836;BME280;66719;51.226;6.902;2023-05-24T06:05:40;101582.53;;;9.58;100.00
4836;BME280;66719;51.226;6.902;2023-05-24T06:08:07;101576.44;;;9.59;100.00
4836;BME280;66719;51.226;6.902;2023-05-24T06:10:33;101575.56;;;9.59;100.00
4836;BME280;66719;51.226;6.902;2023-05-24T06:13:01;101581.66;;;9.59;100.00
4836;BME280;66719;51.226;6.902;2023-05-24T06:15:28;101577.28;;;9.72;100.00
4836;BME280;66719;51.226;6.902;2023-05-24T06:17:54;101574.66;;;9.80;100.00
4836;BME280;66719;51.226;6.902;2023-05-24T06:20:21;101580.78;;;9.83;100.00
4836;BME280;66719;51.226;6.902;2023-05-24T06:22:48;101575.53;;;9.86;100.00
4836;BME280;66719;51.226;6.902;2023-05-24T06:25:15;101578.16;;;9.85;100.00
4836;BME280;66719;51.226;6.902;2023-05-24T06:27:44;101586.00;;;9.93;100.00
4836;BME280;66719;51.226;6.902;2023-05-24T06:30:11;101593.84;;;9.94;100.00
4836;BME280;66719;51.226;6.902;2023-05-24T06:32:38;101588.56;;;9.99;100.00
4836;BME280;66719;51.226;6.902;2023-05-24T06:35:06;101584.22;;;10.04;100.00
4836;BME280;66719;51.226;6.902;2023-05-24T06:37:33;101580.75;;;10.00;100.00
4836;BME280;66719;51.226;6.902;2023-05-24T06:40:00;101592.94;;;10.09;100.00
4836;BME280;66719;51.226;6.902;2023-05-24T06:42:26;101595.50;;;10.15;100.00
4836;BME280;66719;51.226;6.902;2023-05-24T06:44:53;101593.78;;;10.14;100.00
4836;BME280;66719;51.226;6.902;2023-05-24T06:47:20;101595.50;;;10.15;100.00
4836;BME280;66719;51.226;6.902;2023-05-24T06:49:47;101598.16;;;10.18;100.00
4836;BME280;66719;51.226;6.902;2023-05-24T06:52:15;101594.69;;;10.05;100.00
4836;BME280;66719;51.226;6.902;2023-05-24T06:54:44;101598.16;;;10.12;100.00
4836;BME280;66719;51.226;6.902;2023-05-24T06:57:10;101601.66;;;10.09;100.00
4836;BME280;66719;51.226;6.902;2023-05-24T06:59:37;101600.75;;;10.18;100.00
4836;BME280;66719;51.226;6.902;2023-05-24T07:02:03;101606.88;;;10.26;100.00
4836;BME280;66719;51.226;6.902;2023-05-24T07:04:30;101593.75;;;10.35;100.00
4836;BME280;66719;51.226;6.902;2023-05-24T07:06:57;101595.44;;;10.52;100.00
4836;BME280;66719;51.226;6.902;2023-05-24T07:09:24;101594.59;;;10.43;100.00
4836;BME280;66719;51.226;6.902;2023-05-24T07:11:51;101603.34;;;10.39;100.00
4836;BME280;66719;51.226;6.902;2023-05-24T07:14:18;101600.72;;;10.42;100.00
4836;BME280;66719;51.226;6.902;2023-05-24T07:16:44;101605.06;;;10.45;100.00
4836;BME280;66719;51.226;6.902;2023-05-24T07:19:12;101609.41;;;10.47;100.00
4836;BME280;66719;51.226;6.902;2023-05-24T07:21:39;101604.16;;;10.55;100.00
4836;BME280;66719;51.226;6.902;2023-05-24T07:24:06;101601.50;;;10.69;100.00
4836;BME280;66719;51.226;6.902;2023-05-24T07:26:32;101607.59;;;10.71;100.00
4836;BME280;66719;51.226;6.902;2023-05-24T07:28:59;101607.63;;;10.60;100.00
4836;BME280;66719;51.226;6.902;2023-05-24T07:31:26;101600.63;;;10.62;100.00
4836;BME280;66719;51.226;6.902;2023-05-24T07:33:55;101604.09;;;10.69;100.00
4836;BME280;66719;51.226;6.902;2023-05-24T07:36:21;101611.03;;;10.76;100.00
4836;BME280;66719;51.226;6.902;2023-05-24T07:38:48;101615.41;;;10.79;100.00
4836;BME280;66719;51.226;6.902;2023-05-24T07:41:14;101605.78;;;10.79;100.00
4836;BME280;66719;51.226;6.902;2023-05-24T07:43:41;101609.22;;;10.89;100.00
4836;BME280;66719;51.226;6.902;2023-05-24T07:46:08;101610.97;;;10.91;100.00
4836;BME280;66719;51.226;6.902;2023-05-24T07:48:35;101604.88;;;10.85;100.00
4836;BME280;66719;51.226;6.902;2023-05-24T07:51:02;101608.38;;;10.87;100.00
4836;BME280;66719;51.226;6.902;2023-05-24T07:53:28;101604.88;;;10.88;100.00
4836;BME280;66719;51.226;6.902;2023-05-24T07:55:55;101597.84;;;10.97;100.00
4836;BME280;66719;51.226;6.902;2023-05-24T07:58:21;101602.16;;;11.04;100.00
4836;BME280;66719;51.226;6.902;2023-05-24T08:00:48;101593.44;;;11.04;100.00
4836;BME280;66719;51.226;6.902;2023-05-24T08:03:15;101607.38;;;11.08;100.00
4836;BME280;66719;51.226;6.902;2023-05-24T08:05:43;101607.41;;;11.01;100.00
4836;BME280;66719;51.226;6.902;2023-05-24T08:08:10;101605.59;;;11.13;100.00
4836;BME280;66719;51.226;6.902;2023-05-24T08:10:36;101612.47;;;11.32;100.00
4836;BME280;66719;51.226;6.902;2023-05-24T08:13:03;101608.88;;;11.42;100.00
4836;BME280;66719;51.226;6.902;2023-05-24T08:15:30;101605.34;;;11.46;100.00
4836;BME280;66719;51.226;6.902;2023-05-24T08:17:57;101614.06;;;11.51;100.00
4836;BME280;66719;51.226;6.902;2023-05-24T08:20:24;101622.81;;;11.50;100.00
4836;BME280;66719;51.226;6.902;2023-05-24T08:22:50;101617.63;;;11.43;100.00
4836;BME280;66719;51.226;6.902;2023-05-24T08:25:17;101615.88;;;11.42;100.00
4836;BME280;66719;51.226;6.902;2023-05-24T08:27:44;101614.09;;;11.45;100.00
4836;BME280;66719;51.226;6.902;2023-05-24T08:30:12;101615.72;;;11.61;100.00
4836;BME280;66719;51.226;6.902;2023-05-24T08:32:39;101616.44;;;11.83;100.00
4836;BME280;66719;51.226;6.902;2023-05-24T08:35:06;101618.03;;;11.98;100.00
4836;BME280;66719;51.226;6.902;2023-05-24T08:37:46;101614.53;;;12.01;100.00
4836;BME280;66719;51.226;6.902;2023-05-24T08:40:14;101605.66;;;12.11;100.00
4836;BME280;66719;51.226;6.902;2023-05-24T08:42:41;101598.66;;;12.11;98.70
4836;BME280;66719;51.226;6.902;2023-05-24T08:45:10;101595.00;;;12.25;100.00
4836;BME280;66719;51.226;6.902;2023-05-24T08:47:37;101585.41;;;12.25;96.31
4836;BME280;66719;51.226;6.902;2023-05-24T08:50:05;101580.13;;;12.24;95.49
4836;BME280;66719;51.226;6.902;2023-05-24T08:52:32;101591.59;;;12.18;96.71
4836;BME280;66719;51.226;6.902;2023-05-24T08:55:02;101587.31;;;12.06;96.50
4836;BME280;66719;51.226;6.902;2023-05-24T08:57:33;101588.13;;;12.13;99.05
4836;BME280;66719;51.226;6.902;2023-05-24T09:00:06;101583.78;;;12.10;98.21
4836;BME280;66719;51.226;6.902;2023-05-24T09:02:35;101583.78;;;12.12;100.00
4836;BME280;66719;51.226;6.902;2023-05-24T09:05:04;101587.13;;;12.25;100.00
4836;BME280;66719;51.226;6.902;2023-05-24T09:07:34;101586.25;;;12.26;100.00
4836;BME280;66719;51.226;6.902;2023-05-24T09:10:04;101598.63;;;12.13;99.81
4836;BME280;66719;51.226;6.902;2023-05-24T09:12:31;101586.53;;;12.01;99.55
4836;BME280;66719;51.226;6.902;2023-05-24T09:15:05;101585.63;;;12.02;100.00
4836;BME280;66719;51.226;6.902;2023-05-24T09:17:34;101590.91;;;12.01;99.87
4836;BME280;66719;51.226;6.902;2023-05-24T09:20:01;101589.00;;;12.16;100.00
4836;BME280;66719;51.226;6.902;2023-05-24T09:22:33;101581.78;;;12.34;100.00
4836;BME280;66719;51.226;6.902;2023-05-24T09:25:04;101583.44;;;12.41;100.00
4836;BME280;66719;51.226;6.902;2023-05-24T09:27:32;101581.56;;;12.51;100.00
4836;BME280;66719;51.226;6.902;2023-05-24T09:30:00;101584.09;;;12.58;98.93
4836;BME280;66719;51.226;6.902;2023-05-24T09:32:29;101580.66;;;12.55;94.02
4836;BME280;66719;51.226;6.902;2023-05-24T09:34:57;101574.44;;;12.62;95.93
4836;BME280;66719;51.226;6.902;2023-05-24T09:37:25;101581.34;;;12.67;95.90
4836;BME280;66719;51.226;6.902;2023-05-24T09:39:58;101574.28;;;12.72;96.01
4836;BME280;66719;51.226;6.902;2023-05-24T09:42:25;101576.94;;;12.71;96.89
4836;BME280;66719;51.226;6.902;2023-05-24T09:45:06;101582.97;;;12.78;99.07
4836;BME280;66719;51.226;6.902;2023-05-24T09:47:36;101569.09;;;12.66;96.40
4836;BME280;66719;51.226;6.902;2023-05-24T09:50:05;101570.84;;;12.66;95.79
4836;BME280;66719;51.226;6.902;2023-05-24T09:52:35;101574.31;;;12.68;96.33
4836;BME280;66719;51.226;6.902;2023-05-24T09:55:16;101569.97;;;12.67;95.24
4836;BME280;66719;51.226;6.902;2023-05-24T09:58:06;101565.56;;;12.70;95.22
4836;BME280;66719;51.226;6.902;2023-05-24T10:00:37;101568.91;;;12.82;94.10
4836;BME280;66719;51.226;6.902;2023-05-24T10:03:07;101567.03;;;12.90;90.36
4836;BME280;66719;51.226;6.902;2023-05-24T10:05:36;101558.09;;;13.03;92.55
4836;BME280;66719;51.226;6.902;2023-05-24T10:08:04;101564.94;;;13.13;89.21
4836;BME280;66719;51.226;6.902;2023-05-24T10:10:31;101556.16;;;13.11;87.73
4836;BME280;66719;51.226;6.902;2023-05-24T10:12:59;101558.78;;;13.14;87.69
4836;BME280;66719;51.226;6.902;2023-05-24T10:15:27;101559.53;;;13.24;86.97
4836;BME280;66719;51.226;6.902;2023-05-24T10:17:55;101563.88;;;13.26;85.01
4836;BME280;66719;51.226;6.902;2023-05-24T10:20:23;101566.34;;;13.36;86.16
4836;BME280;66719;51.226;6.902;2023-05-24T10:23:09;101563.06;;;13.18;82.93
4836;BME280;66719;51.226;6.902;2023-05-24T10:25:40;101569.38;;;13.08;82.79
4836;BME280;66719;51.226;6.902;2023-05-24T10:28:11;101569.47;;;13.04;85.44
4836;BME280;66719;51.226;6.902;2023-05-24T10:30:55;101569.44;;;13.05;87.29
4836;BME280;66719;51.226;6.902;2023-05-24T10:33:24;101575.59;;;13.04;87.45
4836;BME280;66719;51.226;6.902;2023-05-24T10:35:52;101566.06;;;12.97;85.88
4836;BME280;66719;51.226;6.902;2023-05-24T10:38:21;101573.09;;;12.95;85.29
4836;BME280;66719;51.226;6.902;2023-05-24T10:40:49;101570.47;;;12.93;85.45
4836;BME280;66719;51.226;6.902;2023-05-24T10:43:16;101566.00;;;13.00;85.59
4836;BME280;66719;51.226;6.902;2023-05-24T10:45:48;101559.69;;;13.10;85.39
4836;BME280;66719;51.226;6.902;2023-05-24T10:50:42;101558.41;;;13.39;86.30
4836;BME280;66719;51.226;6.902;2023-05-24T10:53:14;101565.47;;;13.35;82.89
4836;BME280;66719;51.226;6.902;2023-05-24T10:56:01;101561.91;;;13.38;82.80
4836;BME280;66719;51.226;6.902;2023-05-24T11:00:59;101550.16;;;13.60;82.81
4836;BME280;66719;51.226;6.902;2023-05-24T11:03:31;101555.31;;;13.66;84.06
4836;BME280;66719;51.226;6.902;2023-05-24T11:05:58;101554.47;;;13.64;84.83
4836;BME280;66719;51.226;6.902;2023-05-24T11:08:33;101555.44;;;13.58;83.88
4836;BME280;66719;51.226;6.902;2023-05-24T11:11:12;101553.00;;;13.48;82.67
4836;BME280;66719;51.226;6.902;2023-05-24T11:13:46;101553.16;;;13.39;84.77
4836;BME280;66719;51.226;6.902;2023-05-24T11:16:38;101560.19;;;13.38;85.63
4836;BME280;66719;51.226;6.902;2023-05-24T11:19:19;101555.91;;;13.31;83.43
4836;BME280;66719;51.226;6.902;2023-05-24T11:21:48;101555.03;;;13.31;85.65
4836;BME280;66719;51.226;6.902;2023-05-24T11:24:16;101558.59;;;13.26;84.20
4836;BME280;66719;51.226;6.902;2023-05-24T11:26:44;101561.25;;;13.25;83.96
4836;BME280;66719;51.226;6.902;2023-05-24T11:29:14;101554.31;;;13.22;83.25
4836;BME280;66719;51.226;6.902;2023-05-24T11:31:54;101552.56;;;13.20;83.70
4836;BME280;66719;51.226;6.902;2023-05-24T11:34:23;101550.88;;;13.14;82.77
4836;BME280;66719;51.226;6.902;2023-05-24T11:36:50;101549.94;;;13.20;87.20
4836;BME280;66719;51.226;6.902;2023-05-24T11:39:18;101548.97;;;13.25;88.31
4836;BME280;66719;51.226;6.902;2023-05-24T11:41:46;101555.06;;;13.27;86.50
4836;BME280;66719;51.226;6.902;2023-05-24T11:44:16;101553.28;;;13.31;86.05
4836;BME280;66719;51.226;6.902;2023-05-24T11:46:46;101554.19;;;13.28;84.43
4836;BME280;66719;51.226;6.902;2023-05-24T11:49:16;101553.25;;;13.33;86.57
4836;BME280;66719;51.226;6.902;2023-05-24T11:51:43;101547.91;;;13.37;87.62
4836;BME280;66719;51.226;6.902;2023-05-24T11:54:09;101546.03;;;13.44;87.68
4836;BME280;66719;51.226;6.902;2023-05-24T11:56:37;101544.13;;;13.53;85.17
4836;BME280;66719;51.226;6.902;2023-05-24T11:59:24;101541.44;;;13.55;82.38
4836;BME280;66719;51.226;6.902;2023-05-24T12:02:01;101538.72;;;13.61;80.66
4836;BME280;66719;51.226;6.902;2023-05-24T12:04:29;101549.88;;;13.75;81.95
4836;BME280;66719;51.226;6.902;2023-05-24T12:06:57;101546.06;;;13.92;80.76
4836;BME280;66719;51.226;6.902;2023-05-24T12:09:23;101547.22;;;14.22;80.92
4836;BME280;66719;51.226;6.902;2023-05-24T12:11:51;101540.94;;;14.29;78.16
4836;BME280;66719;51.226;6.902;2023-05-24T12:14:27;101542.66;;;14.30;78.82
4836;BME280;66719;51.226;6.902;2023-05-24T12:16:56;101545.41;;;14.25;78.10
4836;BME280;66719;51.226;6.902;2023-05-24T12:19:24;101543.44;;;14.35;80.32
4836;BME280;66719;51.226;6.902;2023-05-24T12:21:56;101547.13;;;14.69;80.22
4836;BME280;66719;51.226;6.902;2023-05-24T12:24:24;101542.56;;;15.15;82.12
4836;BME280;66719;51.226;6.902;2023-05-24T12:26:51;101546.38;;;15.03;78.08
4836;BME280;66719;51.226;6.902;2023-05-24T12:29:22;101540.09;;;15.07;78.56
4836;BME280;66719;51.226;6.902;2023-05-24T12:31:49;101543.03;;;14.93;75.89
4836;BME280;66719;51.226;6.902;2023-05-24T12:34:19;101546.63;;;14.91;74.98
4836;BME280;66719;51.226;6.902;2023-05-24T12:36:46;101557.13;;;14.92;73.67
4836;BME280;66719;51.226;6.902;2023-05-24T12:41:44;101543.16;;;15.26;75.44
4836;BME280;66719;51.226;6.902;2023-05-24T12:44:10;101534.91;;;15.40;75.66
4836;BME280;66719;51.226;6.902;2023-05-24T12:46:37;101529.94;;;15.62;75.10
4836;BME280;66719;51.226;6.902;2023-05-24T12:49:04;101533.63;;;15.54;73.14
4836;BME280;66719;51.226;6.902;2023-05-24T12:51:31;101536.09;;;15.62;76.56
4836;BME280;66719;51.226;6.902;2023-05-24T12:53:57;101530.91;;;15.58;73.40
4836;BME280;66719;51.226;6.902;2023-05-24T12:56:24;101537.22;;;15.52;73.98
4836;BME280;66719;51.226;6.902;2023-05-24T12:58:52;101533.84;;;15.45;73.43
4836;BME280;66719;51.226;6.902;2023-05-24T13:01:21;101533.00;;;15.45;73.45
4836;BME280;66719;51.226;6.902;2023-05-24T13:03:47;101533.50;;;15.61;74.23
4836;BME280;66719;51.226;6.902;2023-05-24T13:06:14;101525.25;;;15.39;74.52
4836;BME280;66719;51.226;6.902;2023-05-24T13:08:41;101534.41;;;15.24;74.93
4836;BME280;66719;51.226;6.902;2023-05-24T13:11:07;101539.00;;;15.16;74.88
4836;BME280;66719;51.226;6.902;2023-05-24T13:13:34;101536.19;;;15.23;77.29
4836;BME280;66719;51.226;6.902;2023-05-24T13:16:01;101534.63;;;15.15;77.65
4836;BME280;66719;51.226;6.902;2023-05-24T13:18:28;101538.28;;;15.09;79.24
4836;BME280;66719;51.226;6.902;2023-05-24T13:20:55;101532.72;;;14.84;78.35
4836;BME280;66719;51.226;6.902;2023-05-24T13:23:26;101527.69;;;14.74;76.90
4836;BME280;66719;51.226;6.902;2023-05-24T13:25:53;101537.50;;;14.67;78.54
4836;BME280;66719;51.226;6.902;2023-05-24T13:28:20;101535.44;;;14.81;80.69